sensor_id;sensor_type;location;lat;lon;timestamp;P1;durP1;ratioP1;P2;durP2;ratioP2
22849;SDS011;11591;44.792;10.358;2022-11-20T00:01:06;66.50;;;25.63;;
22849;SDS011;11591;44.792;10.358;2022-11-20T00:03:33;71.53;;;26.23;;
22849;SDS011;11591;44.792;10.358;2022-11-20T00:06:03;66.10;;;25.92;;
22849;SDS011;11591;44.792;10.358;2022-11-20T00:08:30;71.20;;;27.55;;
22849;SDS011;11591;44.792;10.358;2022-11-20T00:10:56;63.15;;;25.67;;
22849;SDS011;11591;44.792;10.358;2022-11-20T00:13:22;64.57;;;25.70;;
22849;SDS011;11591;44.792;10.358;2022-11-20T00:15:48;65.55;;;26.10;;
22849;SDS011;11591;44.792;10.358;2022-11-20T00:18:13;64.32;;;26.88;;
22849;SDS011;11591;44.792;10.358;2022-11-20T00:20:39;62.83;;;26.25;;
22849;SDS011;11591;44.792;10.358;2022-11-20T00:23:05;72.07;;;26.13;;
22849;SDS011;11591;44.792;10.358;2022-11-20T00:25:33;68.05;;;26.10;;
22849;SDS011;11591;44.792;10.358;2022-11-20T00:28:00;60.08;;;25.55;;
22849;SDS011;11591;44.792;10.358;2022-11-20T00:30:26;65.78;;;26.00;;
22849;SDS011;11591;44.792;10.358;2022-11-20T00:32:52;68.53;;;26.60;;
22849;SDS011;11591;44.792;10.358;2022-11-20T00:35:17;62.95;;;25.10;;
22849;SDS011;11591;44.792;10.358;2022-11-20T00:37:43;65.82;;;25.08;;
22849;SDS011;11591;44.792;10.358;2022-11-20T00:40:09;64.90;;;24.92;;
22849;SDS011;11591;44.792;10.358;2022-11-20T00:42:35;62.33;;;23.35;;
22849;SDS011;11591;44.792;10.358;2022-11-20T00:45:01;62.00;;;23.17;;
22849;SDS011;11591;44.792;10.358;2022-11-20T00:47:26;61.97;;;23.90;;
22849;SDS011;11591;44.792;10.358;2022-11-20T00:49:52;57.35;;;23.50;;
22849;SDS011;11591;44.792;10.358;2022-11-20T00:52:18;62.70;;;23.10;;
22849;SDS011;11591;44.792;10.358;2022-11-20T00:54:44;54.72;;;22.60;;
22849;SDS011;11591;44.792;10.358;2022-11-20T00:57:09;52.45;;;22.23;;
22849;SDS011;11591;44.792;10.358;2022-11-20T00:59:37;51.70;;;21.88;;
22849;SDS011;11591;44.792;10.358;2022-11-20T01:02:02;55.13;;;21.33;;
22849;SDS011;11591;44.792;10.358;2022-11-20T01:04:28;51.63;;;21.60;;
22849;SDS011;11591;44.792;10.358;2022-11-20T01:06:54;56.13;;;22.33;;
22849;SDS011;11591;44.792;10.358;2022-11-20T01:09:20;55.97;;;21.88;;
22849;SDS011;11591;44.792;10.358;2022-11-20T01:11:45;53.47;;;21.98;;
22849;SDS011;11591;44.792;10.358;2022-11-20T01:14:12;54.05;;;22.48;;
22849;SDS011;11591;44.792;10.358;2022-11-20T01:16:42;56.40;;;22.20;;
22849;SDS011;11591;44.792;10.358;2022-11-20T01:19:13;56.08;;;22.00;;
22849;SDS011;11591;44.792;10.358;2022-11-20T01:21:41;54.15;;;21.20;;
22849;SDS011;11591;44.792;10.358;2022-11-20T01:24:10;50.92;;;21.45;;
22849;SDS011;11591;44.792;10.358;2022-11-20T01:26:39;52.30;;;21.85;;
22849;SDS011;11591;44.792;10.358;2022-11-20T01:29:07;56.40;;;21.13;;
22849;SDS011;11591;44.792;10.358;2022-11-20T01:31:37;51.53;;;21.52;;
22849;SDS011;11591;44.792;10.358;2022-11-20T01:34:04;54.78;;;22.60;;
22849;SDS011;11591;44.792;10.358;2022-11-20T01:36:31;50.78;;;20.52;;
22849;SDS011;11591;44.792;10.358;2022-11-20T01:39:01;48.00;;;19.58;;
22849;SDS011;11591;44.792;10.358;2022-11-20T01:41:30;54.83;;;22.48;;
22849;SDS011;11591;44.792;10.358;2022-11-20T01:44:17;55.95;;;23.35;;
22849;SDS011;11591;44.792;10.358;2022-11-20T01:46:50;53.38;;;22.35;;
22849;SDS011;11591;44.792;10.358;2022-11-20T01:49:25;56.53;;;21.77;;
22849;SDS011;11591;44.792;10.358;2022-11-20T01:52:12;56.30;;;21.67;;
22849;SDS011;11591;44.792;10.358;2022-11-20T01:54:43;52.30;;;22.60;;
22849;SDS011;11591;44.792;10.358;2022-11-20T01:57:19;57.33;;;21.27;;
22849;SDS011;11591;44.792;10.358;2022-11-20T01:59:49;59.00;;;22.35;;
22849;SDS011;11591;44.792;10.358;2022-11-20T02:02:20;55.80;;;20.35;;
22849;SDS011;11591;44.792;10.358;2022-11-20T02:04:47;50.40;;;19.98;;
22849;SDS011;11591;44.792;10.358;2022-11-20T02:07:16;49.47;;;20.05;;
22849;SDS011;11591;44.792;10.358;2022-11-20T02:09:43;43.53;;;18.13;;
22849;SDS011;11591;44.792;10.358;2022-11-20T02:12:08;48.95;;;18.88;;
22849;SDS011;11591;44.792;10.358;2022-11-20T02:14:54;42.00;;;18.27;;
22849;SDS011;11591;44.792;10.358;2022-11-20T02:17:21;43.15;;;17.70;;
22849;SDS011;11591;44.792;10.358;2022-11-20T02:19:48;42.53;;;18.25;;
22849;SDS011;11591;44.792;10.358;2022-11-20T02:22:16;43.65;;;18.73;;
22849;SDS011;11591;44.792;10.358;2022-11-20T02:24:47;50.28;;;18.75;;
22849;SDS011;11591;44.792;10.358;2022-11-20T02:27:15;41.22;;;17.63;;
22849;SDS011;11591;44.792;10.358;2022-11-20T02:29:43;42.22;;;18.75;;
22849;SDS011;11591;44.792;10.358;2022-11-20T02:34:52;39.10;;;17.55;;
22849;SDS011;11591;44.792;10.358;2022-11-20T02:37:18;44.05;;;18.45;;
22849;SDS011;11591;44.792;10.358;2022-11-20T02:39:49;42.40;;;17.88;;
22849;SDS011;11591;44.792;10.358;2022-11-20T02:42:17;46.13;;;19.75;;
22849;SDS011;11591;44.792;10.358;2022-11-20T02:44:43;50.20;;;18.38;;
22849;SDS011;11591;44.792;10.358;2022-11-20T02:47:09;43.33;;;17.88;;
22849;SDS011;11591;44.792;10.358;2022-11-20T02:49:34;47.28;;;18.63;;
22849;SDS011;11591;44.792;10.358;2022-11-20T02:52:00;48.17;;;19.98;;
22849;SDS011;11591;44.792;10.358;2022-11-20T02:54:26;40.83;;;17.95;;
22849;SDS011;11591;44.792;10.358;2022-11-20T02:56:52;50.75;;;18.83;;
22849;SDS011;11591;44.792;10.358;2022-11-20T02:59:18;43.10;;;18.35;;
22849;SDS011;11591;44.792;10.358;2022-11-20T03:01:44;36.47;;;17.27;;
22849;SDS011;11591;44.792;10.358;2022-11-20T03:04:10;47.03;;;18.75;;
22849;SDS011;11591;44.792;10.358;2022-11-20T03:06:36;40.42;;;17.08;;
22849;SDS011;11591;44.792;10.358;2022-11-20T03:09:02;41.80;;;16.90;;
22849;SDS011;11591;44.792;10.358;2022-11-20T03:11:28;40.78;;;17.50;;
22849;SDS011;11591;44.792;10.358;2022-11-20T03:13:54;41.38;;;17.52;;
22849;SDS011;11591;44.792;10.358;2022-11-20T03:16:21;37.78;;;17.27;;
22849;SDS011;11591;44.792;10.358;2022-11-20T03:18:48;41.20;;;17.17;;
22849;SDS011;11591;44.792;10.358;2022-11-20T03:21:15;34.33;;;15.95;;
22849;SDS011;11591;44.792;10.358;2022-11-20T03:23:41;34.22;;;15.85;;
22849;SDS011;11591;44.792;10.358;2022-11-20T03:26:11;37.30;;;16.00;;
22849;SDS011;11591;44.792;10.358;2022-11-20T03:28:39;39.55;;;16.30;;
22849;SDS011;11591;44.792;10.358;2022-11-20T03:31:07;35.78;;;15.35;;
22849;SDS011;11591;44.792;10.358;2022-11-20T03:33:33;37.15;;;15.40;;
22849;SDS011;11591;44.792;10.358;2022-11-20T03:36:04;38.25;;;16.58;;
22849;SDS011;11591;44.792;10.358;2022-11-20T03:38:31;37.20;;;15.50;;
22849;SDS011;11591;44.792;10.358;2022-11-20T03:40:58;41.88;;;15.75;;
22849;SDS011;11591;44.792;10.358;2022-11-20T03:43:28;38.33;;;17.00;;
22849;SDS011;11591;44.792;10.358;2022-11-20T03:45:54;41.38;;;18.00;;
22849;SDS011;11591;44.792;10.358;2022-11-20T03:48:20;39.78;;;16.52;;
22849;SDS011;11591;44.792;10.358;2022-11-20T03:50:46;36.63;;;15.60;;
22849;SDS011;11591;44.792;10.358;2022-11-20T03:53:15;46.10;;;17.88;;
22849;SDS011;11591;44.792;10.358;2022-11-20T03:55:41;37.58;;;16.80;;
22849;SDS011;11591;44.792;10.358;2022-11-20T03:58:07;34.42;;;15.63;;
22849;SDS011;11591;44.792;10.358;2022-11-20T04:00:33;34.10;;;14.90;;
22849;SDS011;11591;44.792;10.358;2022-11-20T04:02:59;43.95;;;17.17;;
22849;SDS011;11591;44.792;10.358;2022-11-20T04:05:26;46.58;;;16.92;;
22849;SDS011;11591;44.792;10.358;2022-11-20T04:07:52;38.58;;;16.45;;
22849;SDS011;11591;44.792;10.358;2022-11-20T04:10:18;39.35;;;15.60;;
22849;SDS011;11591;44.792;10.358;2022-11-20T04:12:43;37.67;;;16.45;;
22849;SDS011;11591;44.792;10.358;2022-11-20T04:15:09;42.85;;;17.20;;
22849;SDS011;11591;44.792;10.358;2022-11-20T04:17:35;40.75;;;17.77;;
22849;SDS011;11591;44.792;10.358;2022-11-20T04:20:01;39.17;;;17.40;;
22849;SDS011;11591;44.792;10.358;2022-11-20T04:22:27;50.30;;;21.45;;
22849;SDS011;11591;44.792;10.358;2022-11-20T04:24:53;40.92;;;18.80;;
22849;SDS011;11591;44.792;10.358;2022-11-20T04:27:19;45.55;;;16.92;;
22849;SDS011;11591;44.792;10.358;2022-11-20T04:29:45;42.67;;;16.95;;
22849;SDS011;11591;44.792;10.358;2022-11-20T04:32:11;41.88;;;16.48;;
22849;SDS011;11591;44.792;10.358;2022-11-20T04:34:36;44.50;;;17.58;;
22849;SDS011;11591;44.792;10.358;2022-11-20T04:37:02;43.03;;;16.45;;
22849;SDS011;11591;44.792;10.358;2022-11-20T04:39:28;36.00;;;15.50;;
22849;SDS011;11591;44.792;10.358;2022-11-20T04:41:54;35.17;;;15.25;;
22849;SDS011;11591;44.792;10.358;2022-11-20T04:44:49;38.13;;;15.77;;
22849;SDS011;11591;44.792;10.358;2022-11-20T04:47:14;38.42;;;16.25;;
22849;SDS011;11591;44.792;10.358;2022-11-20T04:49:40;36.75;;;16.25;;
22849;SDS011;11591;44.792;10.358;2022-11-20T04:52:06;34.17;;;14.73;;
22849;SDS011;11591;44.792;10.358;2022-11-20T04:54:32;35.10;;;15.73;;
22849;SDS011;11591;44.792;10.358;2022-11-20T04:56:57;39.38;;;16.80;;
22849;SDS011;11591;44.792;10.358;2022-11-20T04:59:23;36.80;;;15.77;;
22849;SDS011;11591;44.792;10.358;2022-11-20T05:01:49;38.63;;;15.75;;
22849;SDS011;11591;44.792;10.358;2022-11-20T05:04:14;35.53;;;15.13;;
22849;SDS011;11591;44.792;10.358;2022-11-20T05:06:40;36.60;;;15.55;;
22849;SDS011;11591;44.792;10.358;2022-11-20T05:09:06;37.13;;;16.02;;
22849;SDS011;11591;44.792;10.358;2022-11-20T05:11:32;36.15;;;16.15;;
22849;SDS011;11591;44.792;10.358;2022-11-20T05:13:58;38.08;;;16.17;;
22849;SDS011;11591;44.792;10.358;2022-11-20T05:16:25;37.17;;;15.10;;
22849;SDS011;11591;44.792;10.358;2022-11-20T05:18:51;38.33;;;15.68;;
22849;SDS011;11591;44.792;10.358;2022-11-20T05:21:18;39.72;;;16.45;;
22849;SDS011;11591;44.792;10.358;2022-11-20T05:23:44;40.17;;;16.65;;
22849;SDS011;11591;44.792;10.358;2022-11-20T05:26:15;39.00;;;16.77;;
22849;SDS011;11591;44.792;10.358;2022-11-20T05:28:46;38.13;;;16.45;;
22849;SDS011;11591;44.792;10.358;2022-11-20T05:31:17;41.50;;;16.80;;
22849;SDS011;11591;44.792;10.358;2022-11-20T05:33:44;43.33;;;15.93;;
22849;SDS011;11591;44.792;10.358;2022-11-20T05:36:12;44.42;;;16.92;;
22849;SDS011;11591;44.792;10.358;2022-11-20T05:38:38;43.15;;;17.13;;
22849;SDS011;11591;44.792;10.358;2022-11-20T05:41:09;39.97;;;16.63;;
22849;SDS011;11591;44.792;10.358;2022-11-20T05:43:40;45.00;;;17.38;;
22849;SDS011;11591;44.792;10.358;2022-11-20T05:46:09;46.95;;;17.00;;
22849;SDS011;11591;44.792;10.358;2022-11-20T05:48:36;46.25;;;16.98;;
22849;SDS011;11591;44.792;10.358;2022-11-20T05:51:04;41.28;;;16.73;;
22849;SDS011;11591;44.792;10.358;2022-11-20T05:53:32;41.58;;;17.42;;
22849;SDS011;11591;44.792;10.358;2022-11-20T05:55:59;42.60;;;17.58;;
22849;SDS011;11591;44.792;10.358;2022-11-20T05:58:27;47.00;;;18.05;;
22849;SDS011;11591;44.792;10.358;2022-11-20T06:00:53;46.55;;;18.05;;
22849;SDS011;11591;44.792;10.358;2022-11-20T06:03:19;45.08;;;17.67;;
22849;SDS011;11591;44.792;10.358;2022-11-20T06:05:45;49.97;;;17.88;;
22849;SDS011;11591;44.792;10.358;2022-11-20T06:08:11;46.10;;;18.52;;
22849;SDS011;11591;44.792;10.358;2022-11-20T06:10:37;41.70;;;16.20;;
22849;SDS011;11591;44.792;10.358;2022-11-20T06:13:03;40.40;;;16.27;;
22849;SDS011;11591;44.792;10.358;2022-11-20T06:15:28;42.65;;;18.20;;
22849;SDS011;11591;44.792;10.358;2022-11-20T06:17:54;37.63;;;15.70;;
22849;SDS011;11591;44.792;10.358;2022-11-20T06:20:21;46.80;;;17.52;;
22849;SDS011;11591;44.792;10.358;2022-11-20T06:22:47;41.60;;;16.42;;
22849;SDS011;11591;44.792;10.358;2022-11-20T06:25:13;45.10;;;17.48;;
22849;SDS011;11591;44.792;10.358;2022-11-20T06:27:39;39.55;;;15.52;;
22849;SDS011;11591;44.792;10.358;2022-11-20T06:30:04;44.45;;;16.52;;
22849;SDS011;11591;44.792;10.358;2022-11-20T06:32:31;43.47;;;17.02;;
22849;SDS011;11591;44.792;10.358;2022-11-20T06:34:58;41.70;;;16.58;;
22849;SDS011;11591;44.792;10.358;2022-11-20T06:37:23;46.67;;;18.48;;
22849;SDS011;11591;44.792;10.358;2022-11-20T06:39:49;41.40;;;16.90;;
22849;SDS011;11591;44.792;10.358;2022-11-20T06:42:15;44.20;;;17.30;;
22849;SDS011;11591;44.792;10.358;2022-11-20T06:44:41;40.05;;;15.75;;
22849;SDS011;11591;44.792;10.358;2022-11-20T06:47:06;36.90;;;15.50;;
22849;SDS011;11591;44.792;10.358;2022-11-20T06:49:32;36.85;;;16.67;;
22849;SDS011;11591;44.792;10.358;2022-11-20T06:51:59;46.30;;;18.13;;
22849;SDS011;11591;44.792;10.358;2022-11-20T06:54:25;40.08;;;16.42;;
22849;SDS011;11591;44.792;10.358;2022-11-20T06:56:50;38.20;;;16.15;;
22849;SDS011;11591;44.792;10.358;2022-11-20T06:59:16;39.13;;;17.27;;
22849;SDS011;11591;44.792;10.358;2022-11-20T07:01:42;37.30;;;16.20;;
22849;SDS011;11591;44.792;10.358;2022-11-20T07:04:08;37.95;;;16.80;;
22849;SDS011;11591;44.792;10.358;2022-11-20T07:06:34;41.88;;;16.98;;
22849;SDS011;11591;44.792;10.358;2022-11-20T07:08:59;36.15;;;15.73;;
22849;SDS011;11591;44.792;10.358;2022-11-20T07:11:26;34.40;;;15.65;;
22849;SDS011;11591;44.792;10.358;2022-11-20T07:13:52;44.67;;;15.73;;
22849;SDS011;11591;44.792;10.358;2022-11-20T07:16:18;38.25;;;15.23;;
22849;SDS011;11591;44.792;10.358;2022-11-20T07:18:43;37.22;;;14.88;;
22849;SDS011;11591;44.792;10.358;2022-11-20T07:21:09;35.97;;;15.68;;
22849;SDS011;11591;44.792;10.358;2022-11-20T07:23:36;34.85;;;15.48;;
22849;SDS011;11591;44.792;10.358;2022-11-20T07:26:09;37.75;;;15.40;;
22849;SDS011;11591;44.792;10.358;2022-11-20T07:28:36;39.58;;;16.40;;
22849;SDS011;11591;44.792;10.358;2022-11-20T07:31:02;39.17;;;15.05;;
22849;SDS011;11591;44.792;10.358;2022-11-20T07:33:29;39.28;;;16.33;;
22849;SDS011;11591;44.792;10.358;2022-11-20T07:35:55;37.20;;;16.50;;
22849;SDS011;11591;44.792;10.358;2022-11-20T07:38:23;40.95;;;16.80;;
22849;SDS011;11591;44.792;10.358;2022-11-20T07:40:52;41.08;;;15.98;;
22849;SDS011;11591;44.792;10.358;2022-11-20T07:43:19;39.90;;;15.85;;
22849;SDS011;11591;44.792;10.358;2022-11-20T07:45:46;45.28;;;17.63;;
22849;SDS011;11591;44.792;10.358;2022-11-20T07:48:11;55.45;;;19.33;;
22849;SDS011;11591;44.792;10.358;2022-11-20T07:50:37;52.00;;;18.60;;
22849;SDS011;11591;44.792;10.358;2022-11-20T07:53:06;55.08;;;19.27;;
22849;SDS011;11591;44.792;10.358;2022-11-20T07:55:32;58.08;;;17.67;;
22849;SDS011;11591;44.792;10.358;2022-11-20T07:57:58;91.22;;;23.73;;
22849;SDS011;11591;44.792;10.358;2022-11-20T08:00:25;77.43;;;23.13;;
22849;SDS011;11591;44.792;10.358;2022-11-20T08:02:51;79.53;;;25.88;;
22849;SDS011;11591;44.792;10.358;2022-11-20T08:05:17;72.47;;;26.13;;
22849;SDS011;11591;44.792;10.358;2022-11-20T08:07:43;85.30;;;27.83;;
22849;SDS011;11591;44.792;10.358;2022-11-20T08:10:10;66.95;;;26.08;;
22849;SDS011;11591;44.792;10.358;2022-11-20T08:12:45;78.32;;;26.92;;
22849;SDS011;11591;44.792;10.358;2022-11-20T08:15:30;83.38;;;27.85;;
22849;SDS011;11591;44.792;10.358;2022-11-20T08:18:01;80.05;;;28.25;;
22849;SDS011;11591;44.792;10.358;2022-11-20T08:20:34;78.63;;;26.35;;
22849;SDS011;11591;44.792;10.358;2022-11-20T08:23:00;69.35;;;25.50;;
22849;SDS011;11591;44.792;10.358;2022-11-20T08:25:28;92.18;;;29.35;;
22849;SDS011;11591;44.792;10.358;2022-11-20T08:27:58;85.32;;;28.77;;
22849;SDS011;11591;44.792;10.358;2022-11-20T08:30:25;90.50;;;29.15;;
22849;SDS011;11591;44.792;10.358;2022-11-20T08:32:51;81.75;;;27.33;;
22849;SDS011;11591;44.792;10.358;2022-11-20T08:35:17;77.75;;;27.88;;
22849;SDS011;11591;44.792;10.358;2022-11-20T08:37:45;78.55;;;26.40;;
22849;SDS011;11591;44.792;10.358;2022-11-20T08:40:15;71.93;;;26.88;;
22849;SDS011;11591;44.792;10.358;2022-11-20T08:42:47;76.20;;;26.65;;
22849;SDS011;11591;44.792;10.358;2022-11-20T08:45:16;78.20;;;26.35;;
22849;SDS011;11591;44.792;10.358;2022-11-20T08:47:44;68.95;;;24.70;;
22849;SDS011;11591;44.792;10.358;2022-11-20T08:50:10;79.53;;;26.25;;
22849;SDS011;11591;44.792;10.358;2022-11-20T08:52:37;65.93;;;25.30;;
22849;SDS011;11591;44.792;10.358;2022-11-20T08:55:04;74.15;;;26.02;;
22849;SDS011;11591;44.792;10.358;2022-11-20T08:57:31;84.18;;;24.83;;
22849;SDS011;11591;44.792;10.358;2022-11-20T08:59:58;64.65;;;25.58;;
22849;SDS011;11591;44.792;10.358;2022-11-20T09:02:24;72.47;;;26.55;;
22849;SDS011;11591;44.792;10.358;2022-11-20T09:04:50;71.00;;;25.88;;
22849;SDS011;11591;44.792;10.358;2022-11-20T09:07:16;63.05;;;24.63;;
22849;SDS011;11591;44.792;10.358;2022-11-20T09:09:42;62.78;;;24.40;;
22849;SDS011;11591;44.792;10.358;2022-11-20T09:12:07;66.60;;;24.33;;
22849;SDS011;11591;44.792;10.358;2022-11-20T09:14:33;66.65;;;24.35;;
22849;SDS011;11591;44.792;10.358;2022-11-20T09:16:59;67.22;;;24.90;;
22849;SDS011;11591;44.792;10.358;2022-11-20T09:19:25;66.63;;;25.17;;
22849;SDS011;11591;44.792;10.358;2022-11-20T09:21:51;60.67;;;23.58;;
22849;SDS011;11591;44.792;10.358;2022-11-20T09:24:17;54.58;;;21.23;;
22849;SDS011;11591;44.792;10.358;2022-11-20T09:26:43;55.67;;;22.15;;
22849;SDS011;11591;44.792;10.358;2022-11-20T09:29:09;61.45;;;23.17;;
22849;SDS011;11591;44.792;10.358;2022-11-20T09:31:34;55.33;;;22.33;;
22849;SDS011;11591;44.792;10.358;2022-11-20T09:34:00;53.90;;;21.83;;
22849;SDS011;11591;44.792;10.358;2022-11-20T09:36:26;54.03;;;21.85;;
22849;SDS011;11591;44.792;10.358;2022-11-20T09:38:52;54.17;;;22.00;;
22849;SDS011;11591;44.792;10.358;2022-11-20T09:47:08;46.53;;;19.50;;
22849;SDS011;11591;44.792;10.358;2022-11-20T09:52:49;52.50;;;21.23;;
22849;SDS011;11591;44.792;10.358;2022-11-20T09:55:27;51.17;;;21.35;;
22849;SDS011;11591;44.792;10.358;2022-11-20T09:57:54;52.47;;;20.00;;
22849;SDS011;11591;44.792;10.358;2022-11-20T10:00:20;52.97;;;23.05;;
22849;SDS011;11591;44.792;10.358;2022-11-20T10:02:55;62.50;;;24.27;;
22849;SDS011;11591;44.792;10.358;2022-11-20T10:05:22;53.45;;;22.10;;
22849;SDS011;11591;44.792;10.358;2022-11-20T10:07:55;55.20;;;21.92;;
22849;SDS011;11591;44.792;10.358;2022-11-20T10:10:46;52.22;;;21.25;;
22849;SDS011;11591;44.792;10.358;2022-11-20T10:15:55;55.75;;;21.60;;
22849;SDS011;11591;44.792;10.358;2022-11-20T10:18:42;55.03;;;21.50;;
22849;SDS011;11591;44.792;10.358;2022-11-20T10:21:30;55.90;;;21.52;;
22849;SDS011;11591;44.792;10.358;2022-11-20T10:27:21;53.42;;;21.42;;
22849;SDS011;11591;44.792;10.358;2022-11-20T10:32:36;68.50;;;25.08;;
22849;SDS011;11591;44.792;10.358;2022-11-20T10:37:42;68.45;;;25.92;;
22849;SDS011;11591;44.792;10.358;2022-11-20T10:42:49;77.93;;;28.10;;
22849;SDS011;11591;44.792;10.358;2022-11-20T10:47:53;58.80;;;26.13;;
22849;SDS011;11591;44.792;10.358;2022-11-20T10:50:24;64.30;;;26.10;;
22849;SDS011;11591;44.792;10.358;2022-11-20T11:00:32;69.88;;;28.17;;
22849;SDS011;11591;44.792;10.358;2022-11-20T11:02:58;72.50;;;29.23;;
22849;SDS011;11591;44.792;10.358;2022-11-20T11:08:16;69.38;;;28.65;;
22849;SDS011;11591;44.792;10.358;2022-11-20T11:13:25;76.15;;;29.67;;
22849;SDS011;11591;44.792;10.358;2022-11-20T11:15:53;72.40;;;29.33;;
22849;SDS011;11591;44.792;10.358;2022-11-20T11:18:30;73.40;;;29.20;;
22849;SDS011;11591;44.792;10.358;2022-11-20T11:20:59;74.65;;;29.15;;
22849;SDS011;11591;44.792;10.358;2022-11-20T11:26:07;75.32;;;29.27;;
22849;SDS011;11591;44.792;10.358;2022-11-20T11:28:57;76.68;;;29.33;;
22849;SDS011;11591;44.792;10.358;2022-11-20T11:34:07;77.80;;;30.17;;
22849;SDS011;11591;44.792;10.358;2022-11-20T11:36:37;72.68;;;29.60;;
22849;SDS011;11591;44.792;10.358;2022-11-20T11:39:04;78.10;;;31.05;;
22849;SDS011;11591;44.792;10.358;2022-11-20T11:41:39;71.07;;;30.02;;
22849;SDS011;11591;44.792;10.358;2022-11-20T11:44:19;72.45;;;29.48;;
22849;SDS011;11591;44.792;10.358;2022-11-20T11:47:31;73.40;;;32.33;;
22849;SDS011;11591;44.792;10.358;2022-11-20T11:55:20;70.75;;;29.95;;
22849;SDS011;11591;44.792;10.358;2022-11-20T12:01:26;72.93;;;30.27;;
22849;SDS011;11591;44.792;10.358;2022-11-20T12:04:05;73.32;;;29.00;;
22849;SDS011;11591;44.792;10.358;2022-11-20T12:06:44;68.93;;;28.65;;
22849;SDS011;11591;44.792;10.358;2022-11-20T12:09:15;69.75;;;30.42;;
22849;SDS011;11591;44.792;10.358;2022-11-20T12:11:49;80.72;;;31.08;;
22849;SDS011;11591;44.792;10.358;2022-11-20T12:17:07;72.40;;;29.60;;
22849;SDS011;11591;44.792;10.358;2022-11-20T12:19:36;69.95;;;29.98;;
22849;SDS011;11591;44.792;10.358;2022-11-20T12:30:08;77.28;;;30.70;;
22849;SDS011;11591;44.792;10.358;2022-11-20T12:32:49;75.50;;;30.65;;
22849;SDS011;11591;44.792;10.358;2022-11-20T12:35:42;76.47;;;32.22;;
22849;SDS011;11591;44.792;10.358;2022-11-20T12:44:31;71.97;;;30.02;;
22849;SDS011;11591;44.792;10.358;2022-11-20T12:56:07;71.07;;;30.98;;
22849;SDS011;11591;44.792;10.358;2022-11-20T13:01:45;72.30;;;30.38;;
22849;SDS011;11591;44.792;10.358;2022-11-20T13:07:05;71.50;;;29.92;;
22849;SDS011;11591;44.792;10.358;2022-11-20T13:09:34;65.35;;;28.50;;
22849;SDS011;11591;44.792;10.358;2022-11-20T13:12:20;72.30;;;29.35;;
22849;SDS011;11591;44.792;10.358;2022-11-20T13:20:18;64.35;;;29.35;;
22849;SDS011;11591;44.792;10.358;2022-11-20T13:22:45;62.58;;;29.48;;
22849;SDS011;11591;44.792;10.358;2022-11-20T13:25:34;59.58;;;28.33;;
22849;SDS011;11591;44.792;10.358;2022-11-20T13:30:34;66.28;;;29.42;;
22849;SDS011;11591;44.792;10.358;2022-11-20T13:33:04;65.60;;;30.75;;
22849;SDS011;11591;44.792;10.358;2022-11-20T13:36:24;63.30;;;29.38;;
22849;SDS011;11591;44.792;10.358;2022-11-20T13:38:47;65.18;;;28.92;;
22849;SDS011;11591;44.792;10.358;2022-11-20T13:46:42;60.30;;;28.88;;
22849;SDS011;11591;44.792;10.358;2022-11-20T13:49:10;57.78;;;27.52;;
22849;SDS011;11591;44.792;10.358;2022-11-20T13:51:52;55.10;;;26.55;;
22849;SDS011;11591;44.792;10.358;2022-11-20T14:00:16;58.67;;;27.88;;
22849;SDS011;11591;44.792;10.358;2022-11-20T14:02:42;54.63;;;27.63;;
22849;SDS011;11591;44.792;10.358;2022-11-20T14:05:22;50.10;;;26.02;;
22849;SDS011;11591;44.792;10.358;2022-11-20T14:07:48;54.00;;;27.92;;
22849;SDS011;11591;44.792;10.358;2022-11-20T14:10:23;55.35;;;28.10;;
22849;SDS011;11591;44.792;10.358;2022-11-20T14:12:51;53.53;;;26.95;;
22849;SDS011;11591;44.792;10.358;2022-11-20T14:15:30;56.45;;;28.70;;
22849;SDS011;11591;44.792;10.358;2022-11-20T14:17:58;53.10;;;27.00;;
22849;SDS011;11591;44.792;10.358;2022-11-20T14:20:26;49.97;;;27.75;;
22849;SDS011;11591;44.792;10.358;2022-11-20T14:22:53;56.72;;;29.30;;
22849;SDS011;11591;44.792;10.358;2022-11-20T14:25:23;55.72;;;29.02;;
22849;SDS011;11591;44.792;10.358;2022-11-20T14:27:53;56.85;;;28.92;;
22849;SDS011;11591;44.792;10.358;2022-11-20T14:30:22;53.13;;;28.83;;
22849;SDS011;11591;44.792;10.358;2022-11-20T14:32:53;56.38;;;29.80;;
22849;SDS011;11591;44.792;10.358;2022-11-20T14:35:34;58.08;;;30.20;;
22849;SDS011;11591;44.792;10.358;2022-11-20T14:38:02;56.90;;;28.92;;
22849;SDS011;11591;44.792;10.358;2022-11-20T14:40:35;56.72;;;27.75;;
22849;SDS011;11591;44.792;10.358;2022-11-20T14:43:01;59.15;;;31.40;;
22849;SDS011;11591;44.792;10.358;2022-11-20T14:45:42;59.45;;;29.65;;
22849;SDS011;11591;44.792;10.358;2022-11-20T14:48:09;58.15;;;30.33;;
22849;SDS011;11591;44.792;10.358;2022-11-20T14:50:37;51.88;;;28.92;;
22849;SDS011;11591;44.792;10.358;2022-11-20T14:53:04;53.88;;;28.75;;
22849;SDS011;11591;44.792;10.358;2022-11-20T14:55:34;56.10;;;29.48;;
22849;SDS011;11591;44.792;10.358;2022-11-20T14:58:20;54.08;;;29.23;;
22849;SDS011;11591;44.792;10.358;2022-11-20T15:01:00;59.67;;;29.80;;
22849;SDS011;11591;44.792;10.358;2022-11-20T15:03:35;61.92;;;29.75;;
22849;SDS011;11591;44.792;10.358;2022-11-20T15:06:03;60.08;;;28.38;;
22849;SDS011;11591;44.792;10.358;2022-11-20T15:08:30;61.10;;;29.27;;
22849;SDS011;11591;44.792;10.358;2022-11-20T15:10:56;59.90;;;28.83;;
22849;SDS011;11591;44.792;10.358;2022-11-20T15:15:55;54.95;;;27.80;;
22849;SDS011;11591;44.792;10.358;2022-11-20T15:18:22;59.88;;;29.40;;
22849;SDS011;11591;44.792;10.358;2022-11-20T15:20:53;55.88;;;27.17;;
22849;SDS011;11591;44.792;10.358;2022-11-20T15:23:21;57.10;;;28.10;;
22849;SDS011;11591;44.792;10.358;2022-11-20T15:25:47;64.78;;;30.33;;
22849;SDS011;11591;44.792;10.358;2022-11-20T15:30:48;65.30;;;31.45;;
22849;SDS011;11591;44.792;10.358;2022-11-20T15:33:15;67.03;;;31.98;;
22849;SDS011;11591;44.792;10.358;2022-11-20T15:35:42;64.50;;;30.50;;
22849;SDS011;11591;44.792;10.358;2022-11-20T15:38:08;70.13;;;30.98;;
22849;SDS011;11591;44.792;10.358;2022-11-20T15:40:34;66.82;;;31.33;;
22849;SDS011;11591;44.792;10.358;2022-11-20T15:43:01;72.40;;;32.05;;
22849;SDS011;11591;44.792;10.358;2022-11-20T15:48:13;68.80;;;29.42;;
22849;SDS011;11591;44.792;10.358;2022-11-20T15:50:49;76.35;;;31.55;;
22849;SDS011;11591;44.792;10.358;2022-11-20T15:53:22;70.00;;;31.20;;
22849;SDS011;11591;44.792;10.358;2022-11-20T15:55:48;78.97;;;32.33;;
22849;SDS011;11591;44.792;10.358;2022-11-20T15:58:14;69.32;;;31.15;;
22849;SDS011;11591;44.792;10.358;2022-11-20T16:00:42;81.70;;;35.67;;
22849;SDS011;11591;44.792;10.358;2022-11-20T16:03:11;70.07;;;32.60;;
22849;SDS011;11591;44.792;10.358;2022-11-20T16:05:38;82.70;;;35.85;;
22849;SDS011;11591;44.792;10.358;2022-11-20T16:08:04;75.00;;;32.67;;
22849;SDS011;11591;44.792;10.358;2022-11-20T16:10:30;79.00;;;32.60;;
22849;SDS011;11591;44.792;10.358;2022-11-20T16:12:56;94.38;;;40.72;;